Strona główna
METAR-TAF:

METAR-TAF

Lotnisko :

Central Park

Nowy Jork, Nowy Jork, Stany Zjednoczone

Szerokość geograficzna: 40-47-00N, Długość geograficzna: 073-58-00W, wysokość: 47 m

Aktualna obserwacja pogody

Raport powstał 56 minut temu, godzina 07:51 UTC
Wiatr 5 kt od północny wschód
Temperatura 10°C
Wilgotność 62%
Ciśnienie 1014 hPa
Widzialność: 16.1 km
bezchmurnie

METAR: KNYC 250751Z AUTO 05005KT 10SM CLR 10/03 A2995 RMK AO2 SLP131 T01000033 $

czas: 04:47 (08:47 UTC)


TAF: brakujący

Obserwacja i prognoza pogody dla ponad 4000 lotnisk (raport METAR i TAF).

Dostępne stacje oznaczono żółtymi i czerwonymi punktami na mapie.

Najedź kursorem aby zobaczyć nazwę stacji.

Kliknij aby zobaczyć obserwacje i prognozy pogody.

Aby zmienić mapę: kliknij na zielony przycisk z czarnym krzyżykiem, aby powiększyć; na zielony przycisk z myślnikiem, aby pomniejszyć; na zielone strzałki, aby przejść do map sąsiednich.


METAR-TAF: